Time;durP1;ratioP1;P1;durP2;ratioP2;P2;SDS_P1;SDS_P2;PMS_P1;PMS_P2;Temp;Humidity;BMP_temperature;BMP_pressure;BME280_temperature;BME280_humidity;BME280_pressure;Samples;Min_cycle;Max_cycle;Signal;HPM_P1;HPM_P2
2021/12/10 00:02:11;;;;;;;;;;;;;;;10.05;54.69;99469.94;4964719;28;100959;-59
2021/12/10 00:04:39;;;;;;;;;;;;;;;10.06;54.84;99462.66;4964733;28;112806;-63
2021/12/10 00:07:16;;;;;;;;;;;;;;;10.06;54.76;99459.97;4959508;28;97661;-61
2021/12/10 00:09:44;;;;;;;;;;;;;;;10.06;54.81;99451.91;4965179;28;122715;-67
2021/12/10 00:12:16;;;;;;;;;;;;;;;10.05;54.92;99456.47;4964920;28;124978;-59
2021/12/10 00:14:42;;;;;;;;;;;;;;;10.04;54.39;99446.81;4965191;28;98274;-68
2021/12/10 00:17:09;;;;;;;;;;;;;;;10.06;54.55;99451.91;4956559;28;114667;-68
2021/12/10 00:19:44;;;;;;;;;;;;;;;10.05;54.14;99451.09;4947494;28;107653;-68
2021/12/10 00:22:17;;;;;;;;;;;;;;;10.05;54.10;99445.72;4965850;28;98357;-68
2021/12/10 00:24:44;;;;;;;;;;;;;;;10.06;54.28;99441.13;4965243;28;98027;-67
2021/12/10 00:27:10;;;;;;;;;;;;;;;10.05;54.99;99436.84;4959610;28;98030;-59
2021/12/10 00:29:48;;;;;;;;;;;;;;;10.03;54.88;99439.84;4965646;28;99122;-59
2021/12/10 00:32:29;;;;;;;;;;;;;;;10.06;54.37;99438.44;4948680;28;99455;-59
2021/12/10 00:34:55;;;;;;;;;;;;;;;10.04;54.87;99425.28;4965429;28;97950;-59
2021/12/10 00:37:21;;;;;;;;;;;;;;;10.05;54.75;99421.47;4965537;28;97798;-68
2021/12/10 00:39:52;;;;;;;;;;;;;;;10.05;54.53;99421.47;4965484;28;98678;-59
2021/12/10 00:42:20;;;;;;;;;;;;;;;10.05;54.65;99426.06;4964490;28;98591;-68
2021/12/10 00:44:46;;;;;;;;;;;;;;;10.05;54.78;99423.38;4962738;28;122588;-59
2021/12/10 00:47:12;;;;;;;;;;;;;;;10.03;55.04;99420.97;4956433;28;121690;-59
2021/12/10 00:49:38;;;;;;;;;;;;;;;10.03;54.29;99415.59;4961908;28;127587;-59
2021/12/10 00:52:05;;;;;;;;;;;;;;;10.04;54.40;99419.09;4962780;28;99558;-68
2021/12/10 00:54:30;;;;;;;;;;;;;;;10.05;54.87;99418.78;4964134;28;105445;-59
2021/12/10 00:56:56;;;;;;;;;;;;;;;10.04;54.39;99416.41;4941780;28;120798;-59
2021/12/10 00:59:22;;;;;;;;;;;;;;;10.05;54.46;99407.22;4943465;28;124991;-68
2021/12/10 01:01:48;;;;;;;;;;;;;;;10.05;54.41;99396.44;4963041;28;126085;-68
2021/12/10 01:04:25;;;;;;;;;;;;;;;10.04;54.89;99401.03;4944537;28;98127;-59
2021/12/10 01:06:51;;;;;;;;;;;;;;;10.05;54.22;99399.94;4958725;28;97955;-67
2021/12/10 01:09:19;;;;;;;;;;;;;;;10.05;55.25;99397.25;4961819;28;103321;-68
2021/12/10 01:11:51;;;;;;;;;;;;;;;10.05;54.92;99393.75;4963956;28;98289;-68
2021/12/10 01:14:38;;;;;;;;;;;;;;;10.03;54.78;99396.75;4964397;28;98821;-68
2021/12/10 01:25:33;;;;;;;;;;;;;;;10.03;54.33;99385.19;4961306;28;98725;-59
2021/12/10 01:27:59;;;;;;;;;;;;;;;10.03;55.17;99377.09;4957354;28;97782;-67
2021/12/10 01:30:30;;;;;;;;;;;;;;;10.03;54.38;99369.03;4964310;28;126743;-59
2021/12/10 01:32:59;;;;;;;;;;;;;;;10.02;54.40;99365.53;4967843;28;98031;-59
2021/12/10 01:35:31;;;;;;;;;;;;;;;10.03;54.79;99364.44;4967951;28;111266;-68
2021/12/10 01:37:57;;;;;;;;;;;;;;;10.02;54.90;99359.31;4960334;28;97993;-67
2021/12/10 01:40:24;;;;;;;;;;;;;;;10.03;54.81;99352.88;4966747;28;116148;-68
2021/12/10 01:42:53;;;;;;;;;;;;;;;10.02;54.36;99344.00;4966099;28;98247;-59
2021/12/10 01:45:28;;;;;;;;;;;;;;;10.03;54.71;99339.41;4966775;28;98226;-67
2021/12/10 01:48:00;;;;;;;;;;;;;;;10.02;54.09;99327.84;4957557;28;98016;-59
2021/12/10 01:50:26;;;;;;;;;;;;;;;10.02;54.93;99327.03;4966822;28;98396;-59
2021/12/10 01:53:08;;;;;;;;;;;;;;;10.03;54.05;99325.94;4965579;28;125355;-59
2021/12/10 01:55:36;;;;;;;;;;;;;;;10.02;54.75;99316.25;4965809;28;126026;-59
2021/12/10 01:58:02;;;;;;;;;;;;;;;10.03;54.96;99309.81;4957972;28;98020;-58
2021/12/10 02:00:30;;;;;;;;;;;;;;;10.03;54.56;99301.72;4947114;28;125794;-59
2021/12/10 02:02:56;;;;;;;;;;;;;;;10.03;54.51;99304.41;4965414;28;97973;-59
2021/12/10 02:05:22;;;;;;;;;;;;;;;10.03;54.71;99299.81;4958528;28;99291;-68
2021/12/10 02:07:48;;;;;;;;;;;;;;;10.03;54.89;99288.25;4960920;28;122620;-59
2021/12/10 02:10:16;;;;;;;;;;;;;;;10.03;54.31;99291.75;4942118;28;126583;-59
2021/12/10 02:12:42;;;;;;;;;;;;;;;10.05;54.57;99294.13;4964396;28;98653;-67
2021/12/10 02:15:10;;;;;;;;;;;;;;;10.05;54.82;99291.44;4966557;28;98078;-67
2021/12/10 02:17:39;;;;;;;;;;;;;;;10.05;54.69;99286.06;4958709;28;98040;-67
2021/12/10 02:20:50;;;;;;;;;;;;;;;10.03;54.51;99283.66;4966140;28;98260;-59
2021/12/10 02:23:16;;;;;;;;;;;;;;;10.05;55.17;99286.06;4966581;28;98359;-59
2021/12/10 02:25:41;;;;;;;;;;;;;;;10.04;54.67;99281.78;4967154;28;98350;-59
2021/12/10 02:28:09;;;;;;;;;;;;;;;10.05;54.69;99275.28;4957912;28;121217;-59
2021/12/10 02:30:35;;;;;;;;;;;;;;;10.03;54.88;99267.50;4966568;28;98370;-59
2021/12/10 02:33:01;;;;;;;;;;;;;;;10.03;55.05;99267.50;4943645;28;113313;-59
2021/12/10 02:35:27;;;;;;;;;;;;;;;10.05;54.44;99264.53;4959747;28;113938;-68
2021/12/10 02:37:53;;;;;;;;;;;;;;;10.05;54.90;99253.75;4959914;28;117570;-59
2021/12/10 02:40:20;;;;;;;;;;;;;;;10.04;54.82;99244.88;4961313;28;127648;-67
2021/12/10 02:42:46;;;;;;;;;;;;;;;10.05;54.90;99245.66;4964304;28;124547;-67
2021/12/10 02:45:12;;;;;;;;;;;;;;;10.06;55.08;99225.72;4967286;28;99094;-67
2021/12/10 02:47:38;;;;;;;;;;;;;;;10.03;54.37;99221.75;4957883;28;106790;-59
2021/12/10 02:50:06;;;;;;;;;;;;;;;10.06;54.32;99225.72;4964666;28;128754;-58
2021/12/10 02:52:31;;;;;;;;;;;;;;;10.06;54.83;99228.41;4965624;28;105432;-59
2021/12/10 02:54:58;;;;;;;;;;;;;;;10.06;54.85;99223.03;4966057;28;127457;-67
2021/12/10 02:57:25;;;;;;;;;;;;;;;10.06;54.34;99223.03;4958621;28;97687;-59
2021/12/10 02:59:51;;;;;;;;;;;;;;;10.05;54.61;99219.53;4966211;28;98963;-67
2021/12/10 03:02:18;;;;;;;;;;;;;;;10.06;54.45;99213.09;4966040;28;98578;-59
2021/12/10 03:04:44;;;;;;;;;;;;;;;10.07;54.78;99211.19;4968102;28;98173;-59
2021/12/10 03:07:14;;;;;;;;;;;;;;;10.06;55.08;99210.41;4958360;28;121780;-68
2021/12/10 03:09:41;;;;;;;;;;;;;;;10.06;54.84;99199.63;4958018;28;97846;-67
2021/12/10 03:12:07;;;;;;;;;;;;;;;10.07;55.29;99197.72;4964018;28;126079;-59
2021/12/10 03:14:35;;;;;;;;;;;;;;;10.05;54.42;99198.00;4964706;28;118899;-68
2021/12/10 03:17:03;;;;;;;;;;;;;;;10.06;54.36;99191.56;4960931;28;97955;-59
2021/12/10 03:19:29;;;;;;;;;;;;;;;10.06;54.29;99183.47;4928688;28;99492;-67
2021/12/10 03:21:55;;;;;;;;;;;;;;;10.07;54.01;99176.19;4964608;28;128532;-67
2021/12/10 03:24:23;;;;;;;;;;;;;;;10.07;54.46;99173.50;4964997;28;125379;-68
2021/12/10 03:26:51;;;;;;;;;;;;;;;10.07;54.97;99168.13;4945819;28;98087;-59
2021/12/10 03:29:20;;;;;;;;;;;;;;;10.06;55.01;99164.63;4962852;28;98744;-67
2021/12/10 03:31:47;;;;;;;;;;;;;;;10.08;54.55;99164.31;4965265;28;98288;-59
2021/12/10 03:34:13;;;;;;;;;;;;;;;10.07;54.79;99163.53;4965317;28;97747;-59
2021/12/10 03:36:45;;;;;;;;;;;;;;;10.08;55.23;99162.41;4961188;28;122661;-59
2021/12/10 03:39:12;;;;;;;;;;;;;;;10.08;54.69;99169.72;4961393;28;98416;-67
2021/12/10 03:41:38;;;;;;;;;;;;;;;10.07;54.70;99165.41;4964602;28;98457;-59
2021/12/10 03:44:04;;;;;;;;;;;;;;;10.08;55.07;99167.81;4964986;28;121312;-68
2021/12/10 03:46:30;;;;;;;;;;;;;;;10.07;54.18;99173.50;4963298;28;97988;-60
2021/12/10 03:48:56;;;;;;;;;;;;;;;10.07;54.80;99165.41;4957133;28;127452;-59
2021/12/10 03:51:23;;;;;;;;;;;;;;;10.07;54.79;99168.91;4966389;28;98350;-68
2021/12/10 03:53:50;;;;;;;;;;;;;;;10.07;54.56;99166.22;4964070;28;115498;-59
2021/12/10 03:56:17;;;;;;;;;;;;;;;10.06;55.06;99167.31;4966792;28;97752;-68
2021/12/10 03:58:43;;;;;;;;;;;;;;;10.06;54.87;99169.19;4956440;28;120182;-59
2021/12/10 04:01:10;;;;;;;;;;;;;;;10.06;54.90;99158.41;4965919;28;112792;-68
2021/12/10 04:03:36;;;;;;;;;;;;;;;10.07;55.19;99162.72;4964307;28;111874;-68
2021/12/10 04:06:03;;;;;;;;;;;;;;;10.06;54.70;99159.25;4962523;28;120185;-59
2021/12/10 04:08:28;;;;;;;;;;;;;;;10.05;54.81;99163.00;4955848;28;117213;-59
2021/12/10 04:10:54;;;;;;;;;;;;;;;10.06;54.95;99170.00;4945375;28;99070;-59
2021/12/10 04:13:21;;;;;;;;;;;;;;;10.06;54.40;99163.81;4964253;28;128168;-67
2021/12/10 04:15:47;;;;;;;;;;;;;;;10.06;54.55;99158.41;4946571;28;100862;-68
2021/12/10 04:18:14;;;;;;;;;;;;;;;10.05;54.45;99163.00;4959799;28;106247;-59
2021/12/10 04:20:40;;;;;;;;;;;;;;;10.06;54.55;99163.81;4957272;28;98334;-68
2021/12/10 04:23:10;;;;;;;;;;;;;;;10.05;54.30;99176.47;4965321;28;97764;-59
2021/12/10 04:25:36;;;;;;;;;;;;;;;10.05;54.89;99176.47;4965577;28;118462;-59
2021/12/10 04:28:03;;;;;;;;;;;;;;;10.05;54.93;99171.09;4955631;28;98798;-59
2021/12/10 04:30:35;;;;;;;;;;;;;;;10.06;55.39;99180.78;4964171;28;98842;-59
2021/12/10 04:33:03;;;;;;;;;;;;;;;10.06;54.77;99172.72;4966182;28;98105;-60
2021/12/10 04:35:29;;;;;;;;;;;;;;;10.07;55.39;99178.88;4963788;28;119949;-67
2021/12/10 04:37:54;;;;;;;;;;;;;;;10.06;54.93;99180.78;4957698;28;98814;-68
2021/12/10 04:40:22;;;;;;;;;;;;;;;10.06;54.45;99177.25;4963007;28;126492;-59
2021/12/10 04:42:48;;;;;;;;;;;;;;;10.07;54.61;99176.19;4963306;28;98455;-59
2021/12/10 04:45:16;;;;;;;;;;;;;;;10.07;54.82;99170.81;4964691;28;118213;-68
2021/12/10 04:47:42;;;;;;;;;;;;;;;10.06;54.99;99169.19;4963845;28;98026;-59
2021/12/10 04:50:09;;;;;;;;;;;;;;;10.07;54.83;99168.13;4963633;28;122599;-58
2021/12/10 04:52:35;;;;;;;;;;;;;;;10.06;55.21;99167.31;4963412;28;98290;-59
2021/12/10 04:55:02;;;;;;;;;;;;;;;10.08;54.93;99164.31;4964221;28;98107;-68
2021/12/10 04:57:28;;;;;;;;;;;;;;;10.07;54.87;99168.91;4965226;28;108622;-59
2021/12/10 04:59:54;;;;;;;;;;;;;;;10.06;55.23;99164.63;4962061;28;128117;-67
2021/12/10 05:02:20;;;;;;;;;;;;;;;10.08;54.60;99148.97;4965380;28;98021;-68
2021/12/10 05:04:47;;;;;;;;;;;;;;;10.07;54.48;99144.69;4962218;28;122463;-68
2021/12/10 05:07:13;;;;;;;;;;;;;;;10.08;54.27;99146.25;4959090;28;97997;-59
2021/12/10 05:09:39;;;;;;;;;;;;;;;10.09;54.92;99136.28;4956501;28;107890;-59
2021/12/10 05:12:06;;;;;;;;;;;;;;;10.10;54.96;99146.00;4965236;28;98679;-68
2021/12/10 05:14:32;;;;;;;;;;;;;;;10.09;54.57;99136.28;4964220;28;117259;-68
2021/12/10 05:17:03;;;;;;;;;;;;;;;10.11;55.04;99141.41;4958462;28;123581;-59
2021/12/10 05:19:29;;;;;;;;;;;;;;;10.11;55.20;99144.09;4962924;28;98466;-59
2021/12/10 05:21:59;;;;;;;;;;;;;;;10.11;54.16;99134.13;4965354;28;97935;-68
2021/12/10 05:24:25;;;;;;;;;;;;;;;10.11;55.10;99139.50;4965229;28;97676;-59
2021/12/10 05:26:51;;;;;;;;;;;;;;;10.12;54.61;99134.91;4960133;28;123648;-68
2021/12/10 05:29:17;;;;;;;;;;;;;;;10.12;54.93;99135.72;4961548;28;98797;-68
2021/12/10 05:31:43;;;;;;;;;;;;;;;10.13;54.72;99134.59;4963997;28;127010;-59
2021/12/10 05:34:09;;;;;;;;;;;;;;;10.12;54.94;99133.00;4963341;28;97643;-59
2021/12/10 05:36:35;;;;;;;;;;;;;;;10.13;54.28;99123.03;4957734;28;122284;-59
2021/12/10 05:39:02;;;;;;;;;;;;;;;10.13;55.34;99123.03;4954296;28;128226;-59
2021/12/10 05:41:28;;;;;;;;;;;;;;;10.13;54.68;99125.72;4959964;28;121978;-59
2021/12/10 05:43:54;;;;;;;;;;;;;;;10.13;54.37;99109.56;4960507;28;112574;-59
2021/12/10 05:46:20;;;;;;;;;;;;;;;10.12;54.69;99111.47;4958411;28;122058;-59
2021/12/10 05:48:46;;;;;;;;;;;;;;;10.14;54.91;99116.56;4952788;28;102621;-59
2021/12/10 05:51:13;;;;;;;;;;;;;;;10.13;54.51;99112.28;4959726;28;127900;-59
2021/12/10 05:53:38;;;;;;;;;;;;;;;10.14;54.43;99111.16;4959475;28;97871;-59
2021/12/10 05:56:05;;;;;;;;;;;;;;;10.14;54.69;99113.84;4960550;28;124689;-59
2021/12/10 05:58:31;;;;;;;;;;;;;;;10.14;55.14;99114.69;4952527;28;97833;-59
2021/12/10 06:01:04;;;;;;;;;;;;;;;10.14;55.46;99109.28;4959626;28;127439;-59
2021/12/10 06:03:31;;;;;;;;;;;;;;;10.13;55.03;99113.06;4960876;28;97740;-59
2021/12/10 06:05:57;;;;;;;;;;;;;;;10.15;55.33;99107.41;4942311;28;115896;-59
2021/12/10 06:08:23;;;;;;;;;;;;;;;10.13;55.03;99110.38;4950289;28;128053;-59
2021/12/10 06:10:50;;;;;;;;;;;;;;;10.14;55.12;99103.09;4960594;28;97881;-59
2021/12/10 06:13:16;;;;;;;;;;;;;;;10.13;54.47;99105.00;4960350;28;118831;-59
2021/12/10 06:15:42;;;;;;;;;;;;;;;10.14;54.75;99095.00;4960636;28;128843;-59
2021/12/10 06:18:08;;;;;;;;;;;;;;;10.13;54.99;99094.22;4942666;28;98500;-59
2021/12/10 06:20:37;;;;;;;;;;;;;;;10.14;55.31;99101.22;4962446;28;107878;-59
2021/12/10 06:23:04;;;;;;;;;;;;;;;10.14;55.02;99103.91;4962123;28;97881;-59
2021/12/10 06:25:30;;;;;;;;;;;;;;;10.14;54.63;99095.00;4963910;28;99107;-59
2021/12/10 06:27:56;;;;;;;;;;;;;;;10.14;54.71;99093.16;4955540;28;98408;-59
2021/12/10 06:30:25;;;;;;;;;;;;;;;10.15;54.93;99091.25;4957343;28;127058;-59
2021/12/10 06:32:54;;;;;;;;;;;;;;;10.14;55.07;99089.63;4957123;28;98717;-59
2021/12/10 06:35:20;;;;;;;;;;;;;;;10.13;55.02;99094.22;4957704;28;98422;-59
2021/12/10 06:37:46;;;;;;;;;;;;;;;10.14;55.23;99095.84;4949375;28;107878;-59
2021/12/10 06:40:14;;;;;;;;;;;;;;;10.14;54.98;99092.31;4957516;28;98395;-59
2021/12/10 06:42:40;;;;;;;;;;;;;;;10.14;55.42;99087.75;4958864;28;97994;-59
2021/12/10 06:45:08;;;;;;;;;;;;;;;10.13;55.00;99085.34;4956028;28;128960;-59
2021/12/10 06:47:34;;;;;;;;;;;;;;;10.14;54.54;99086.94;4948887;28;99564;-59
2021/12/10 06:50:00;;;;;;;;;;;;;;;10.14;54.68;99081.53;4956367;28;124164;-59
2021/12/10 06:52:26;;;;;;;;;;;;;;;10.13;54.86;99079.97;4957009;28;117106;-59
2021/12/10 06:54:52;;;;;;;;;;;;;;;10.13;55.11;99082.66;4956824;28;127465;-59
2021/12/10 06:57:18;;;;;;;;;;;;;;;10.12;55.16;99068.41;4948805;28;126835;-59
2021/12/10 06:59:44;;;;;;;;;;;;;;;10.14;55.20;99066.22;4956243;28;127979;-59
2021/12/10 07:02:11;;;;;;;;;;;;;;;10.14;54.74;99066.22;4958179;28;97906;-59
2021/12/10 07:04:41;;;;;;;;;;;;;;;10.13;54.71;99061.91;4957434;28;98783;-58
2021/12/10 07:07:07;;;;;;;;;;;;;;;10.14;54.51;99065.38;4952031;28;98428;-58
2021/12/10 07:09:33;;;;;;;;;;;;;;;10.15;54.82;99069.69;4959286;28;97929;-59
2021/12/10 07:11:59;;;;;;;;;;;;;;;10.15;55.11;99067.00;4960436;28;97833;-67
2021/12/10 07:14:25;;;;;;;;;;;;;;;10.15;54.62;99067.81;4960150;28;128155;-68
2021/12/10 07:16:51;;;;;;;;;;;;;;;10.15;55.01;99067.81;4955773;28;125092;-59
2021/12/10 07:19:17;;;;;;;;;;;;;;;10.17;54.89;99070.19;4958322;28;102434;-59
2021/12/10 07:21:44;;;;;;;;;;;;;;;10.19;54.93;99068.00;4958084;28;122498;-64
2021/12/10 07:24:12;;;;;;;;;;;;;;;10.19;54.88;99062.63;4961956;28;98383;-59
2021/12/10 07:26:38;;;;;;;;;;;;;;;10.19;54.51;99059.94;4959423;28;126398;-68
2021/12/10 07:29:04;;;;;;;;;;;;;;;10.20;55.34;99059.63;4957964;28;127657;-68
2021/12/10 07:31:30;;;;;;;;;;;;;;;10.21;54.38;99052.34;4964874;28;98039;-68
2021/12/10 07:33:56;;;;;;;;;;;;;;;10.21;54.81;99053.13;4964022;28;109527;-68
2021/12/10 07:36:23;;;;;;;;;;;;;;;10.24;54.98;99047.16;4962946;28;98539;-68
2021/12/10 07:38:50;;;;;;;;;;;;;;;10.24;55.00;99043.66;4957694;28;116343;-68
2021/12/10 07:41:16;;;;;;;;;;;;;;;10.25;54.41;99038.00;4965046;28;98171;-68
2021/12/10 07:43:42;;;;;;;;;;;;;;;10.27;54.97;99032.34;4964599;28;101535;-68
2021/12/10 07:46:08;;;;;;;;;;;;;;;10.28;54.67;99037.41;4964627;28;99135;-68
2021/12/10 07:48:35;;;;;;;;;;;;;;;10.29;54.22;99036.31;4957623;28;97982;-69
2021/12/10 07:51:05;;;;;;;;;;;;;;;10.30;54.78;99035.22;4966603;28;97887;-69
2021/12/10 07:53:31;;;;;;;;;;;;;;;10.31;54.86;99039.50;4965008;28;99312;-69
2021/12/10 07:56:00;;;;;;;;;;;;;;;10.32;54.94;99041.09;4965693;28;119873;-68
2021/12/10 07:58:26;;;;;;;;;;;;;;;10.34;54.98;99034.63;4955260;28;97984;-69
2021/12/10 08:00:52;;;;;;;;;;;;;;;10.35;54.82;99038.91;4963997;28;117371;-69
2021/12/10 08:03:18;;;;;;;;;;;;;;;10.36;54.84;99033.22;4965263;28;99095;-69
2021/12/10 08:05:44;;;;;;;;;;;;;;;10.37;54.42;99026.72;4964905;28;122051;-69
2021/12/10 08:08:10;;;;;;;;;;;;;;;10.38;54.61;99032.94;4955221;28;125581;-69
2021/12/10 08:10:37;;;;;;;;;;;;;;;10.39;54.63;99029.94;4965123;28;97795;-69
2021/12/10 08:13:03;;;;;;;;;;;;;;;10.40;54.06;99028.81;4964537;28;98153;-68
2021/12/10 08:15:28;;;;;;;;;;;;;;;10.42;54.99;99023.94;4963141;28;127524;-69
2021/12/10 08:17:55;;;;;;;;;;;;;;;10.43;54.83;99025.53;4954093;28;125692;-69
2021/12/10 08:20:22;;;;;;;;;;;;;;;10.44;54.44;99029.03;4964091;28;117556;-68
2021/12/10 08:22:49;;;;;;;;;;;;;;;10.46;54.96;99024.94;4944977;28;98441;-69
2021/12/10 08:25:15;;;;;;;;;;;;;;;10.48;54.32;99013.84;4946839;28;98646;-68
2021/12/10 08:27:41;;;;;;;;;;;;;;;10.50;54.63;99023.25;4957939;28;120313;-69
2021/12/10 08:30:08;;;;;;;;;;;;;;;10.52;54.25;99025.63;4956966;28;121648;-69
2021/12/10 08:32:34;;;;;;;;;;;;;;;10.53;54.59;99022.66;4962421;28;98268;-68
2021/12/10 08:35:01;;;;;;;;;;;;;;;10.55;54.82;99017.75;4963404;28;99065;-68
2021/12/10 08:37:27;;;;;;;;;;;;;;;10.56;54.50;99011.25;4955000;28;122096;-68
2021/12/10 08:39:53;;;;;;;;;;;;;;;10.58;54.93;99016.34;4963813;28;121962;-68
2021/12/10 08:42:19;;;;;;;;;;;;;;;10.61;54.55;99012.22;4958662;28;126092;-68
2021/12/10 08:44:45;;;;;;;;;;;;;;;10.62;54.26;99006.56;4959105;28;128532;-68
2021/12/10 08:47:12;;;;;;;;;;;;;;;10.64;54.50;99012.44;4955920;28;99133;-68
2021/12/10 08:49:39;;;;;;;;;;;;;;;10.66;54.94;99006.75;4962089;28;98141;-69
2021/12/10 08:52:06;;;;;;;;;;;;;;;10.67;54.63;99006.44;4964465;28;114272;-68
2021/12/10 08:54:32;;;;;;;;;;;;;;;10.69;54.75;98996.16;4946593;28;98360;-68
2021/12/10 08:56:58;;;;;;;;;;;;;;;10.71;54.38;98998.56;4957646;28;99415;-69
2021/12/10 08:59:25;;;;;;;;;;;;;;;10.74;54.69;98997.94;4944593;28;98186;-68
2021/12/10 09:01:56;;;;;;;;;;;;;;;10.77;54.23;98997.34;4957187;28;98581;-68
2021/12/10 09:04:22;;;;;;;;;;;;;;;10.80;54.57;98991.31;4962056;28;109382;-69
2021/12/10 09:06:51;;;;;;;;;;;;;;;10.82;54.56;98992.63;4959579;28;97954;-69
2021/12/10 09:09:19;;;;;;;;;;;;;;;10.85;54.52;98987.75;4961454;28;97837;-68
2021/12/10 09:11:48;;;;;;;;;;;;;;;10.88;54.66;98992.50;4964722;28;98617;-69
2021/12/10 09:14:15;;;;;;;;;;;;;;;10.90;54.82;98988.41;4962203;28;98493;-68
2021/12/10 09:16:41;;;;;;;;;;;;;;;10.93;54.65;98990.50;4963946;28;98828;-69
2021/12/10 09:19:10;;;;;;;;;;;;;;;10.95;54.95;98990.19;4963789;28;97820;-69
2021/12/10 09:21:36;;;;;;;;;;;;;;;10.97;54.89;98988.78;4940408;28;99223;-68
2021/12/10 09:24:06;;;;;;;;;;;;;;;11.00;54.76;98985.50;4946679;28;129001;-68
2021/12/10 09:26:37;;;;;;;;;;;;;;;11.01;54.47;98986.28;4945155;28;98026;-69
2021/12/10 09:29:04;;;;;;;;;;;;;;;11.05;54.66;98987.28;4954816;28;97725;-68
2021/12/10 09:31:33;;;;;;;;;;;;;;;11.06;54.81;98983.47;4963421;28;98812;-68
2021/12/10 09:33:59;;;;;;;;;;;;;;;11.10;54.81;98978.25;4963597;28;99512;-69
2021/12/10 09:36:25;;;;;;;;;;;;;;;11.14;54.60;98971.94;4961718;28;98843;-68
2021/12/10 09:38:51;;;;;;;;;;;;;;;11.20;54.35;98967.19;4939812;28;123259;-69
2021/12/10 09:41:17;;;;;;;;;;;;;;;11.25;54.42;98959.00;4958939;28;97938;-68
2021/12/10 09:43:43;;;;;;;;;;;;;;;11.29;54.45;98957.28;4961562;28;126412;-68
2021/12/10 09:46:09;;;;;;;;;;;;;;;11.34;54.41;98950.97;4961602;28;123201;-69
2021/12/10 09:48:37;;;;;;;;;;;;;;;11.38;54.74;98954.63;4954423;28;97865;-69
2021/12/10 09:51:13;;;;;;;;;;;;;;;11.42;54.49;98950.22;4965151;28;98401;-69
2021/12/10 09:53:40;;;;;;;;;;;;;;;11.46;54.49;98951.97;4966350;28;98379;-69
2021/12/10 09:56:06;;;;;;;;;;;;;;;11.53;54.50;98946.16;4968017;28;97943;-69
2021/12/10 09:58:32;;;;;;;;;;;;;;;11.58;54.16;98948.72;4957547;28;97970;-69
2021/12/10 10:01:01;;;;;;;;;;;;;;;11.63;54.43;98947.78;4968158;28;99641;-69
2021/12/10 10:03:30;;;;;;;;;;;;;;;11.69;54.38;98950.03;4966138;28;97943;-69
2021/12/10 10:05:59;;;;;;;;;;;;;;;11.73;54.55;98953.69;4967083;28;98119;-69
2021/12/10 10:08:25;;;;;;;;;;;;;;;11.77;54.39;98943.09;4958322;28;97797;-69
2021/12/10 10:10:53;;;;;;;;;;;;;;;11.80;54.49;98956.75;4966232;28;98566;-69
2021/12/10 10:13:20;;;;;;;;;;;;;;;11.83;54.35;98941.88;4965451;28;99294;-69
2021/12/10 10:15:47;;;;;;;;;;;;;;;11.86;54.45;98940.44;4949387;28;98495;-69
2021/12/10 10:18:13;;;;;;;;;;;;;;;11.88;54.26;98939.03;4958993;28;97975;-68
2021/12/10 10:20:41;;;;;;;;;;;;;;;11.90;54.40;98928.69;4965718;28;98383;-69
2021/12/10 10:23:08;;;;;;;;;;;;;;;11.94;54.55;98934.28;4966083;28;98092;-69
2021/12/10 10:25:34;;;;;;;;;;;;;;;11.96;54.58;98930.16;4965419;28;97796;-68
2021/12/10 10:28:00;;;;;;;;;;;;;;;12.01;54.46;98931.91;4954862;28;98015;-69
2021/12/10 10:30:29;;;;;;;;;;;;;;;12.05;54.68;98924.78;4953674;28;99341;-69
2021/12/10 10:32:56;;;;;;;;;;;;;;;12.08;54.29;98924.16;4964605;28;98608;-69
2021/12/10 10:35:27;;;;;;;;;;;;;;;12.11;54.49;98922.75;4965423;28;97844;-69
2021/12/10 10:37:53;;;;;;;;;;;;;;;12.14;54.36;98916.69;4894291;28;1820756;-68
2021/12/10 10:40:22;;;;;;;;;;;;;;;12.16;54.53;98911.78;4966212;28;98017;-69
2021/12/10 10:42:49;;;;;;;;;;;;;;;12.17;54.61;98907.97;4965400;28;98880;-69
2021/12/10 10:45:17;;;;;;;;;;;;;;;12.20;54.58;98908.13;4965714;28;120071;-69
2021/12/10 10:47:44;;;;;;;;;;;;;;;12.21;54.66;98906.22;4966213;28;97840;-69
2021/12/10 10:50:16;;;;;;;;;;;;;;;12.22;54.71;98905.09;4965362;28;98699;-69
2021/12/10 10:52:45;;;;;;;;;;;;;;;12.22;54.75;98911.34;4966572;28;115120;-69
2021/12/10 10:55:11;;;;;;;;;;;;;;;12.23;54.67;98914.81;4965554;28;123895;-69
2021/12/10 10:57:54;;;;;;;;;;;;;;;12.22;54.84;98908.63;4966373;28;98148;-69
2021/12/10 11:00:28;;;;;;;;;;;;;;;12.23;54.76;98896.69;4965272;28;99159;-69
2021/12/10 11:02:58;;;;;;;;;;;;;;;12.26;54.76;98900.66;4959711;28;99350;-69
2021/12/10 11:05:24;;;;;;;;;;;;;;;12.27;55.04;98899.56;4965455;28;99214;-69
2021/12/10 11:07:55;;;;;;;;;;;;;;;12.29;54.96;98903.53;4966091;28;98198;-68
2021/12/10 11:10:30;;;;;;;;;;;;;;;12.32;54.77;98904.03;4966014;28;98243;-69
2021/12/10 11:13:11;;;;;;;;;;;;;;;12.34;54.78;98904.47;4966693;28;106085;-69
2021/12/10 11:15:38;;;;;;;;;;;;;;;12.38;54.82;98902.75;4958569;28;98239;-69
2021/12/10 11:18:04;;;;;;;;;;;;;;;12.40;54.77;98901.31;4961751;28;97987;-69
2021/12/10 11:20:34;;;;;;;;;;;;;;;12.45;54.68;98903.06;4960839;28;123923;-59
2021/12/10 11:23:07;;;;;;;;;;;;;;;12.48;54.72;98903.22;4960734;28;104629;-60
2021/12/10 11:25:40;;;;;;;;;;;;;;;12.52;54.77;98896.06;4963104;28;98664;-63
2021/12/10 11:28:08;;;;;;;;;;;;;;;12.57;54.82;98902.44;4962054;28;98355;-68
2021/12/10 11:30:34;;;;;;;;;;;;;;;12.58;54.90;98893.25;4958638;28;98322;-69
2021/12/10 11:33:10;;;;;;;;;;;;;;;12.62;55.13;98891.50;4962416;28;103656;-60
2021/12/10 11:35:42;;;;;;;;;;;;;;;12.63;54.84;98893.88;4960690;28;98149;-69
2021/12/10 11:38:15;;;;;;;;;;;;;;;12.65;54.98;98886.22;4960461;28;97934;-68
2021/12/10 11:40:45;;;;;;;;;;;;;;;12.65;54.94;98888.91;4958934;28;98583;-60
2021/12/10 11:46:45;;;;;;;;;;;;;;;12.66;54.93;98882.41;4922051;28;98298;-68
2021/12/10 11:49:11;;;;;;;;;;;;;;;12.69;54.96;98879.09;4958460;28;97905;-59
2021/12/10 11:51:49;;;;;;;;;;;;;;;12.71;54.99;98878.75;4961265;28;98334;-59
2021/12/10 11:54:38;;;;;;;;;;;;;;;12.72;55.16;98874.94;4960223;28;126574;-59
2021/12/10 11:57:09;;;;;;;;;;;;;;;12.72;54.88;98875.72;4960029;28;98440;-60
2021/12/10 11:59:37;;;;;;;;;;;;;;;12.76;55.00;98875.88;4963139;28;116621;-69
2021/12/10 12:02:07;;;;;;;;;;;;;;;12.78;55.02;98874.47;4942999;28;126562;-69
2021/12/10 12:04:40;;;;;;;;;;;;;;;12.80;54.93;98867.94;4960335;28;127715;-59
2021/12/10 12:07:41;;;;;;;;;;;;;;;12.82;54.95;98861.09;4959861;28;98055;-59
2021/12/10 12:10:22;;;;;;;;;;;;;;;12.86;54.93;98858.53;4958238;28;98006;-59
2021/12/10 12:12:59;;;;;;;;;;;;;;;12.89;55.07;98860.59;4960931;28;98095;-60
2021/12/10 12:15:28;;;;;;;;;;;;;;;12.92;54.88;98859.94;4958473;28;98066;-59
2021/12/10 12:18:07;;;;;;;;;;;;;;;12.95;55.03;98856.59;4958804;28;98365;-60
2021/12/10 12:20:52;;;;;;;;;;;;;;;12.99;54.84;98852.16;4958926;28;116452;-69
2021/12/10 12:26:27;;;;;;;;;;;;;;;13.09;54.71;98851.81;4958620;28;98226;-59
2021/12/10 12:28:57;;;;;;;;;;;;;;;13.15;54.91;98852.41;4956503;28;124007;-59
2021/12/10 12:31:30;;;;;;;;;;;;;;;13.20;54.97;98852.25;4959560;28;98231;-60
2021/12/10 12:34:02;;;;;;;;;;;;;;;13.23;54.99;98847.00;4958601;28;98663;-70
2021/12/10 12:36:34;;;;;;;;;;;;;;;13.27;54.71;98853.34;4960846;28;98907;-60
2021/12/10 12:39:00;;;;;;;;;;;;;;;13.30;54.98;98843.81;4959886;28;98342;-69
2021/12/10 12:41:31;;;;;;;;;;;;;;;13.33;54.62;98847.78;4959451;28;115569;-59
2021/12/10 12:44:20;;;;;;;;;;;;;;;13.35;54.76;98851.75;4962794;28;98343;-60
2021/12/10 12:47:14;;;;;;;;;;;;;;;13.35;54.84;98851.75;4962159;28;99090;-69
2021/12/10 12:49:52;;;;;;;;;;;;;;;13.35;55.06;98857.16;4956932;28;98668;-59
2021/12/10 12:52:20;;;;;;;;;;;;;;;13.34;54.94;98862.91;4959899;28;97896;-60
2021/12/10 12:55:14;;;;;;;;;;;;;;;13.31;54.88;98858.91;4958773;28;98755;-69
2021/12/10 12:57:58;;;;;;;;;;;;;;;13.29;55.18;98854.97;4960678;28;98324;-69
2021/12/10 13:00:29;;;;;;;;;;;;;;;13.25;55.28;98858.31;4958517;28;98398;-59
2021/12/10 13:02:57;;;;;;;;;;;;;;;13.23;55.26;98854.34;4960706;28;97785;-69
2021/12/10 13:05:37;;;;;;;;;;;;;;;13.19;55.42;98848.75;4958521;28;123624;-60